sensor_id;sensor_type;location;lat;lon;timestamp;temperature;humidity
8858;DHT22;4465;50.904;4.696;2023-08-24T00:01:45;19.60;99.90
8858;DHT22;4465;50.904;4.696;2023-08-24T00:04:16;19.60;99.90
8858;DHT22;4465;50.904;4.696;2023-08-24T00:06:42;19.60;99.90
8858;DHT22;4465;50.904;4.696;2023-08-24T00:09:07;19.60;99.90
8858;DHT22;4465;50.904;4.696;2023-08-24T00:11:34;19.60;99.90
8858;DHT22;4465;50.904;4.696;2023-08-24T00:14:00;19.60;99.90
8858;DHT22;4465;50.904;4.696;2023-08-24T00:16:28;19.60;99.90
8858;DHT22;4465;50.904;4.696;2023-08-24T00:18:54;19.60;99.90
8858;DHT22;4465;50.904;4.696;2023-08-24T00:21:22;19.60;99.90
8858;DHT22;4465;50.904;4.696;2023-08-24T00:23:50;19.60;99.90
8858;DHT22;4465;50.904;4.696;2023-08-24T00:26:16;19.60;99.90
8858;DHT22;4465;50.904;4.696;2023-08-24T00:28:45;19.60;99.90
8858;DHT22;4465;50.904;4.696;2023-08-24T00:31:12;19.50;99.90
8858;DHT22;4465;50.904;4.696;2023-08-24T00:33:40;19.50;99.90
8858;DHT22;4465;50.904;4.696;2023-08-24T00:36:07;19.50;99.90
8858;DHT22;4465;50.904;4.696;2023-08-24T00:38:35;19.50;99.90
8858;DHT22;4465;50.904;4.696;2023-08-24T00:41:03;19.50;99.90
8858;DHT22;4465;50.904;4.696;2023-08-24T00:43:30;19.50;99.90
8858;DHT22;4465;50.904;4.696;2023-08-24T00:45:58;19.50;99.90
8858;DHT22;4465;50.904;4.696;2023-08-24T00:48:25;19.50;99.90
8858;DHT22;4465;50.904;4.696;2023-08-24T00:50:55;19.40;99.90
8858;DHT22;4465;50.904;4.696;2023-08-24T00:53:21;19.50;99.90
8858;DHT22;4465;50.904;4.696;2023-08-24T00:55:49;19.40;99.90
8858;DHT22;4465;50.904;4.696;2023-08-24T00:58:15;19.50;99.90
8858;DHT22;4465;50.904;4.696;2023-08-24T01:00:41;19.50;99.90
8858;DHT22;4465;50.904;4.696;2023-08-24T01:03:07;19.50;99.90
8858;DHT22;4465;50.904;4.696;2023-08-24T01:05:33;19.50;99.90
8858;DHT22;4465;50.904;4.696;2023-08-24T01:07:59;19.50;99.90
8858;DHT22;4465;50.904;4.696;2023-08-24T01:10:31;19.50;99.90
8858;DHT22;4465;50.904;4.696;2023-08-24T01:13:08;19.60;99.90
8858;DHT22;4465;50.904;4.696;2023-08-24T01:16:00;19.60;99.90
8858;DHT22;4465;50.904;4.696;2023-08-24T01:18:25;19.60;99.90
8858;DHT22;4465;50.904;4.696;2023-08-24T01:20:53;19.60;99.90
8858;DHT22;4465;50.904;4.696;2023-08-24T01:23:43;19.60;99.90
8858;DHT22;4465;50.904;4.696;2023-08-24T01:26:17;19.60;99.90
8858;DHT22;4465;50.904;4.696;2023-08-24T01:28:44;19.60;99.90
8858;DHT22;4465;50.904;4.696;2023-08-24T01:31:10;19.60;99.90
8858;DHT22;4465;50.904;4.696;2023-08-24T01:33:39;19.60;99.90
8858;DHT22;4465;50.904;4.696;2023-08-24T01:36:05;19.60;99.90
8858;DHT22;4465;50.904;4.696;2023-08-24T01:38:32;19.60;99.90
8858;DHT22;4465;50.904;4.696;2023-08-24T01:41:42;19.50;99.90
8858;DHT22;4465;50.904;4.696;2023-08-24T01:44:09;19.50;99.90
8858;DHT22;4465;50.904;4.696;2023-08-24T01:46:37;19.60;99.90
8858;DHT22;4465;50.904;4.696;2023-08-24T01:49:17;19.50;99.90
8858;DHT22;4465;50.904;4.696;2023-08-24T01:51:45;19.50;99.90
8858;DHT22;4465;50.904;4.696;2023-08-24T01:54:12;19.50;99.90
8858;DHT22;4465;50.904;4.696;2023-08-24T01:56:38;19.50;99.90
8858;DHT22;4465;50.904;4.696;2023-08-24T01:59:04;19.50;99.90
8858;DHT22;4465;50.904;4.696;2023-08-24T02:01:30;19.50;99.90
8858;DHT22;4465;50.904;4.696;2023-08-24T02:03:58;19.50;99.90
8858;DHT22;4465;50.904;4.696;2023-08-24T02:06:29;19.50;99.90
8858;DHT22;4465;50.904;4.696;2023-08-24T02:08:55;19.50;99.90
8858;DHT22;4465;50.904;4.696;2023-08-24T02:11:20;19.50;99.90
8858;DHT22;4465;50.904;4.696;2023-08-24T02:13:46;19.50;99.90
8858;DHT22;4465;50.904;4.696;2023-08-24T02:16:14;19.50;99.90
8858;DHT22;4465;50.904;4.696;2023-08-24T02:18:40;19.50;99.90
8858;DHT22;4465;50.904;4.696;2023-08-24T02:21:08;19.50;99.90
8858;DHT22;4465;50.904;4.696;2023-08-24T02:23:40;19.50;99.90
8858;DHT22;4465;50.904;4.696;2023-08-24T02:26:06;19.50;99.90
8858;DHT22;4465;50.904;4.696;2023-08-24T02:28:33;19.50;99.90
8858;DHT22;4465;50.904;4.696;2023-08-24T02:31:03;19.60;99.90
8858;DHT22;4465;50.904;4.696;2023-08-24T02:33:29;19.60;99.90
8858;DHT22;4465;50.904;4.696;2023-08-24T02:35:58;19.60;99.90
8858;DHT22;4465;50.904;4.696;2023-08-24T02:38:29;19.50;99.90
8858;DHT22;4465;50.904;4.696;2023-08-24T02:41:02;19.50;99.90
8858;DHT22;4465;50.904;4.696;2023-08-24T02:43:28;19.50;99.90
8858;DHT22;4465;50.904;4.696;2023-08-24T02:46:03;19.50;99.90
8858;DHT22;4465;50.904;4.696;2023-08-24T02:48:30;19.40;99.90
8858;DHT22;4465;50.904;4.696;2023-08-24T02:51:00;19.40;99.90
8858;DHT22;4465;50.904;4.696;2023-08-24T02:53:26;19.30;99.90
8858;DHT22;4465;50.904;4.696;2023-08-24T02:55:58;19.20;99.90
8858;DHT22;4465;50.904;4.696;2023-08-24T02:58:24;19.20;99.90
8858;DHT22;4465;50.904;4.696;2023-08-24T03:00:49;19.20;99.90
8858;DHT22;4465;50.904;4.696;2023-08-24T03:03:15;19.10;99.90
8858;DHT22;4465;50.904;4.696;2023-08-24T03:05:55;19.10;99.90
8858;DHT22;4465;50.904;4.696;2023-08-24T03:08:21;19.00;99.90
8858;DHT22;4465;50.904;4.696;2023-08-24T03:10:49;19.00;99.90
8858;DHT22;4465;50.904;4.696;2023-08-24T03:13:16;19.00;99.90
8858;DHT22;4465;50.904;4.696;2023-08-24T03:15:42;19.00;99.90
8858;DHT22;4465;50.904;4.696;2023-08-24T03:18:13;19.00;99.90
8858;DHT22;4465;50.904;4.696;2023-08-24T03:20:39;18.90;99.90
8858;DHT22;4465;50.904;4.696;2023-08-24T03:23:10;18.90;99.90
8858;DHT22;4465;50.904;4.696;2023-08-24T03:25:37;18.90;99.90
8858;DHT22;4465;50.904;4.696;2023-08-24T03:28:04;18.90;99.90
8858;DHT22;4465;50.904;4.696;2023-08-24T03:30:34;18.90;99.90
8858;DHT22;4465;50.904;4.696;2023-08-24T03:33:00;18.90;99.90
8858;DHT22;4465;50.904;4.696;2023-08-24T03:35:28;18.90;99.90
8858;DHT22;4465;50.904;4.696;2023-08-24T03:37:55;18.90;99.90
8858;DHT22;4465;50.904;4.696;2023-08-24T03:40:21;18.80;99.90
8858;DHT22;4465;50.904;4.696;2023-08-24T03:42:50;18.80;99.90
8858;DHT22;4465;50.904;4.696;2023-08-24T03:45:16;18.80;99.90
8858;DHT22;4465;50.904;4.696;2023-08-24T03:47:42;18.80;99.90
8858;DHT22;4465;50.904;4.696;2023-08-24T03:50:08;18.80;99.90
8858;DHT22;4465;50.904;4.696;2023-08-24T03:52:37;18.80;99.90
8858;DHT22;4465;50.904;4.696;2023-08-24T03:55:06;18.80;99.90
8858;DHT22;4465;50.904;4.696;2023-08-24T03:57:34;18.70;99.90
8858;DHT22;4465;50.904;4.696;2023-08-24T04:00:00;18.80;99.90
8858;DHT22;4465;50.904;4.696;2023-08-24T04:02:28;18.70;99.90
8858;DHT22;4465;50.904;4.696;2023-08-24T04:04:54;18.80;99.90
8858;DHT22;4465;50.904;4.696;2023-08-24T04:07:20;18.70;99.90
8858;DHT22;4465;50.904;4.696;2023-08-24T04:09:49;18.80;99.90
8858;DHT22;4465;50.904;4.696;2023-08-24T04:12:15;18.80;99.90
8858;DHT22;4465;50.904;4.696;2023-08-24T04:14:41;18.70;99.90
8858;DHT22;4465;50.904;4.696;2023-08-24T04:17:07;18.70;99.90
8858;DHT22;4465;50.904;4.696;2023-08-24T04:19:33;18.70;99.90
8858;DHT22;4465;50.904;4.696;2023-08-24T04:21:59;18.70;99.90
8858;DHT22;4465;50.904;4.696;2023-08-24T04:24:24;18.70;99.90
8858;DHT22;4465;50.904;4.696;2023-08-24T04:26:51;18.70;99.90
8858;DHT22;4465;50.904;4.696;2023-08-24T04:29:17;18.70;99.90
8858;DHT22;4465;50.904;4.696;2023-08-24T04:31:43;18.70;99.90
8858;DHT22;4465;50.904;4.696;2023-08-24T04:34:09;18.70;99.90
8858;DHT22;4465;50.904;4.696;2023-08-24T04:36:39;18.70;99.90
8858;DHT22;4465;50.904;4.696;2023-08-24T04:39:05;18.70;99.90
8858;DHT22;4465;50.904;4.696;2023-08-24T04:41:31;18.70;99.90
8858;DHT22;4465;50.904;4.696;2023-08-24T04:43:57;18.60;99.90
8858;DHT22;4465;50.904;4.696;2023-08-24T04:46:27;18.60;99.90
8858;DHT22;4465;50.904;4.696;2023-08-24T04:48:53;18.60;99.90
8858;DHT22;4465;50.904;4.696;2023-08-24T04:51:19;18.60;99.90
8858;DHT22;4465;50.904;4.696;2023-08-24T04:53:45;18.50;99.90
8858;DHT22;4465;50.904;4.696;2023-08-24T04:56:11;18.50;99.90
8858;DHT22;4465;50.904;4.696;2023-08-24T04:58:39;18.50;99.90
8858;DHT22;4465;50.904;4.696;2023-08-24T05:01:05;18.50;99.90
8858;DHT22;4465;50.904;4.696;2023-08-24T05:03:30;18.40;99.90
8858;DHT22;4465;50.904;4.696;2023-08-24T05:05:56;18.50;99.90
8858;DHT22;4465;50.904;4.696;2023-08-24T05:08:22;18.40;99.90
8858;DHT22;4465;50.904;4.696;2023-08-24T05:10:48;18.40;99.90
8858;DHT22;4465;50.904;4.696;2023-08-24T05:13:16;18.40;99.90
8858;DHT22;4465;50.904;4.696;2023-08-24T05:15:46;18.50;99.90
8858;DHT22;4465;50.904;4.696;2023-08-24T05:18:12;18.40;99.90
8858;DHT22;4465;50.904;4.696;2023-08-24T05:20:38;18.50;99.90
8858;DHT22;4465;50.904;4.696;2023-08-24T05:23:04;18.50;99.90
8858;DHT22;4465;50.904;4.696;2023-08-24T05:25:30;18.50;99.90
8858;DHT22;4465;50.904;4.696;2023-08-24T05:27:56;18.50;99.90
8858;DHT22;4465;50.904;4.696;2023-08-24T05:30:26;18.50;99.90
8858;DHT22;4465;50.904;4.696;2023-08-24T05:32:54;18.50;99.90
8858;DHT22;4465;50.904;4.696;2023-08-24T05:35:20;18.50;99.90
8858;DHT22;4465;50.904;4.696;2023-08-24T05:37:48;18.60;99.90
8858;DHT22;4465;50.904;4.696;2023-08-24T05:40:14;18.60;99.90
8858;DHT22;4465;50.904;4.696;2023-08-24T05:42:44;18.70;99.90
8858;DHT22;4465;50.904;4.696;2023-08-24T05:45:10;18.70;99.90
8858;DHT22;4465;50.904;4.696;2023-08-24T05:47:40;18.80;99.90
8858;DHT22;4465;50.904;4.696;2023-08-24T05:50:06;18.90;99.90
8858;DHT22;4465;50.904;4.696;2023-08-24T05:52:34;18.90;99.90
8858;DHT22;4465;50.904;4.696;2023-08-24T05:55:00;19.00;99.90
8858;DHT22;4465;50.904;4.696;2023-08-24T05:57:29;19.10;99.90
8858;DHT22;4465;50.904;4.696;2023-08-24T05:59:57;19.20;99.90
8858;DHT22;4465;50.904;4.696;2023-08-24T06:02:25;19.30;99.90
8858;DHT22;4465;50.904;4.696;2023-08-24T06:04:51;19.40;99.90
8858;DHT22;4465;50.904;4.696;2023-08-24T06:07:17;19.40;99.90
8858;DHT22;4465;50.904;4.696;2023-08-24T06:09:46;19.50;99.90
8858;DHT22;4465;50.904;4.696;2023-08-24T06:12:14;19.60;99.90
8858;DHT22;4465;50.904;4.696;2023-08-24T06:14:44;19.60;99.90
8858;DHT22;4465;50.904;4.696;2023-08-24T06:17:10;19.70;99.90
8858;DHT22;4465;50.904;4.696;2023-08-24T06:19:36;19.80;99.90
8858;DHT22;4465;50.904;4.696;2023-08-24T06:22:04;19.90;99.90
8858;DHT22;4465;50.904;4.696;2023-08-24T06:24:31;20.00;99.90
8858;DHT22;4465;50.904;4.696;2023-08-24T06:26:59;20.00;99.90
8858;DHT22;4465;50.904;4.696;2023-08-24T06:29:27;20.10;99.90
8858;DHT22;4465;50.904;4.696;2023-08-24T06:31:53;20.20;99.90
8858;DHT22;4465;50.904;4.696;2023-08-24T06:34:19;20.30;99.90
8858;DHT22;4465;50.904;4.696;2023-08-24T06:36:47;20.40;99.90
8858;DHT22;4465;50.904;4.696;2023-08-24T06:39:13;20.50;99.90
8858;DHT22;4465;50.904;4.696;2023-08-24T06:41:39;20.60;99.90
8858;DHT22;4465;50.904;4.696;2023-08-24T06:44:05;20.70;99.90
8858;DHT22;4465;50.904;4.696;2023-08-24T06:46:31;20.80;99.90
8858;DHT22;4465;50.904;4.696;2023-08-24T06:48:57;20.90;99.90
8858;DHT22;4465;50.904;4.696;2023-08-24T06:51:25;21.00;99.90
8858;DHT22;4465;50.904;4.696;2023-08-24T06:53:51;21.10;99.90
8858;DHT22;4465;50.904;4.696;2023-08-24T06:56:17;21.20;99.90
8858;DHT22;4465;50.904;4.696;2023-08-24T06:58:47;21.30;99.90
8858;DHT22;4465;50.904;4.696;2023-08-24T07:01:15;21.30;99.90
8858;DHT22;4465;50.904;4.696;2023-08-24T07:03:44;21.50;99.90
8858;DHT22;4465;50.904;4.696;2023-08-24T07:06:09;21.50;99.90
8858;DHT22;4465;50.904;4.696;2023-08-24T07:08:38;21.60;99.90
8858;DHT22;4465;50.904;4.696;2023-08-24T07:11:04;21.70;99.90
8858;DHT22;4465;50.904;4.696;2023-08-24T07:13:30;21.70;99.90
8858;DHT22;4465;50.904;4.696;2023-08-24T07:15:56;21.80;99.90
8858;DHT22;4465;50.904;4.696;2023-08-24T07:18:22;21.90;99.90
8858;DHT22;4465;50.904;4.696;2023-08-24T07:20:48;22.00;99.90
8858;DHT22;4465;50.904;4.696;2023-08-24T07:23:14;22.10;99.90
8858;DHT22;4465;50.904;4.696;2023-08-24T07:25:40;22.20;99.90
8858;DHT22;4465;50.904;4.696;2023-08-24T07:28:06;22.20;99.90
8858;DHT22;4465;50.904;4.696;2023-08-24T07:30:35;22.30;99.90
8858;DHT22;4465;50.904;4.696;2023-08-24T07:33:02;22.40;99.90
8858;DHT22;4465;50.904;4.696;2023-08-24T07:35:31;22.50;99.90
8858;DHT22;4465;50.904;4.696;2023-08-24T07:37:57;22.60;99.90
8858;DHT22;4465;50.904;4.696;2023-08-24T07:40:24;22.80;99.90
8858;DHT22;4465;50.904;4.696;2023-08-24T07:42:51;22.80;99.90
8858;DHT22;4465;50.904;4.696;2023-08-24T07:45:20;22.90;99.90
8858;DHT22;4465;50.904;4.696;2023-08-24T07:47:46;22.90;99.90
8858;DHT22;4465;50.904;4.696;2023-08-24T07:50:12;23.00;99.90
8858;DHT22;4465;50.904;4.696;2023-08-24T07:52:38;23.00;99.90
8858;DHT22;4465;50.904;4.696;2023-08-24T07:55:07;23.00;99.90
8858;DHT22;4465;50.904;4.696;2023-08-24T07:57:34;23.00;99.90
8858;DHT22;4465;50.904;4.696;2023-08-24T08:00:00;23.10;99.90
8858;DHT22;4465;50.904;4.696;2023-08-24T08:02:30;23.10;99.90
8858;DHT22;4465;50.904;4.696;2023-08-24T08:04:58;23.10;99.90
8858;DHT22;4465;50.904;4.696;2023-08-24T08:07:26;23.10;99.90
8858;DHT22;4465;50.904;4.696;2023-08-24T08:09:52;23.20;99.90
8858;DHT22;4465;50.904;4.696;2023-08-24T08:12:20;23.20;99.90
8858;DHT22;4465;50.904;4.696;2023-08-24T08:14:46;23.20;99.90
8858;DHT22;4465;50.904;4.696;2023-08-24T08:17:12;23.20;99.90
8858;DHT22;4465;50.904;4.696;2023-08-24T08:19:40;23.20;99.90
8858;DHT22;4465;50.904;4.696;2023-08-24T08:22:07;23.20;99.90
8858;DHT22;4465;50.904;4.696;2023-08-24T08:24:33;23.30;99.90
8858;DHT22;4465;50.904;4.696;2023-08-24T08:26:59;23.30;99.90
8858;DHT22;4465;50.904;4.696;2023-08-24T08:29:25;23.30;99.90
8858;DHT22;4465;50.904;4.696;2023-08-24T08:31:53;23.30;99.90
8858;DHT22;4465;50.904;4.696;2023-08-24T08:34:19;23.30;99.90
8858;DHT22;4465;50.904;4.696;2023-08-24T08:36:47;23.30;99.90
8858;DHT22;4465;50.904;4.696;2023-08-24T08:39:16;23.30;99.90
8858;DHT22;4465;50.904;4.696;2023-08-24T08:41:43;23.40;99.90
8858;DHT22;4465;50.904;4.696;2023-08-24T08:44:15;23.40;99.90
8858;DHT22;4465;50.904;4.696;2023-08-24T08:46:42;23.40;99.90
8858;DHT22;4465;50.904;4.696;2023-08-24T08:49:13;23.40;99.90
8858;DHT22;4465;50.904;4.696;2023-08-24T08:51:44;23.40;99.90
8858;DHT22;4465;50.904;4.696;2023-08-24T08:54:10;23.50;99.90
8858;DHT22;4465;50.904;4.696;2023-08-24T08:56:39;23.50;99.90
8858;DHT22;4465;50.904;4.696;2023-08-24T08:59:07;23.60;99.90
8858;DHT22;4465;50.904;4.696;2023-08-24T09:01:34;23.60;99.90
8858;DHT22;4465;50.904;4.696;2023-08-24T09:04:02;23.70;99.90
8858;DHT22;4465;50.904;4.696;2023-08-24T09:06:32;23.70;99.90
8858;DHT22;4465;50.904;4.696;2023-08-24T09:09:00;23.70;99.90
8858;DHT22;4465;50.904;4.696;2023-08-24T09:11:31;23.80;99.90
8858;DHT22;4465;50.904;4.696;2023-08-24T09:13:57;23.80;99.90
8858;DHT22;4465;50.904;4.696;2023-08-24T09:16:29;23.90;99.90
8858;DHT22;4465;50.904;4.696;2023-08-24T09:18:55;23.90;99.90
8858;DHT22;4465;50.904;4.696;2023-08-24T09:21:23;24.00;99.90
8858;DHT22;4465;50.904;4.696;2023-08-24T09:23:58;24.00;99.90
8858;DHT22;4465;50.904;4.696;2023-08-24T09:26:30;24.00;99.90
8858;DHT22;4465;50.904;4.696;2023-08-24T09:29:00;24.00;99.90
8858;DHT22;4465;50.904;4.696;2023-08-24T09:31:36;24.00;99.90
8858;DHT22;4465;50.904;4.696;2023-08-24T09:34:08;23.90;99.90
8858;DHT22;4465;50.904;4.696;2023-08-24T09:36:34;23.90;99.90
8858;DHT22;4465;50.904;4.696;2023-08-24T09:39:04;23.80;99.90
8858;DHT22;4465;50.904;4.696;2023-08-24T09:41:45;23.80;99.90
8858;DHT22;4465;50.904;4.696;2023-08-24T09:44:14;23.80;99.90
8858;DHT22;4465;50.904;4.696;2023-08-24T09:46:45;23.70;99.90
8858;DHT22;4465;50.904;4.696;2023-08-24T09:49:14;23.70;99.90
8858;DHT22;4465;50.904;4.696;2023-08-24T09:51:42;23.70;99.90
8858;DHT22;4465;50.904;4.696;2023-08-24T09:54:10;23.60;99.90
8858;DHT22;4465;50.904;4.696;2023-08-24T09:56:40;23.60;99.90
8858;DHT22;4465;50.904;4.696;2023-08-24T09:59:14;23.50;99.90
8858;DHT22;4465;50.904;4.696;2023-08-24T10:01:46;23.40;99.90
8858;DHT22;4465;50.904;4.696;2023-08-24T10:04:16;23.30;99.90
8858;DHT22;4465;50.904;4.696;2023-08-24T10:06:49;23.20;99.90
8858;DHT22;4465;50.904;4.696;2023-08-24T10:09:22;23.10;99.90
8858;DHT22;4465;50.904;4.696;2023-08-24T10:11:58;23.00;99.90
8858;DHT22;4465;50.904;4.696;2023-08-24T10:14:32;22.90;99.90
8858;DHT22;4465;50.904;4.696;2023-08-24T10:16:59;22.80;99.90
8858;DHT22;4465;50.904;4.696;2023-08-24T10:19:26;22.60;99.90
8858;DHT22;4465;50.904;4.696;2023-08-24T10:21:54;22.50;99.90
8858;DHT22;4465;50.904;4.696;2023-08-24T10:24:23;22.40;99.90
8858;DHT22;4465;50.904;4.696;2023-08-24T10:26:50;22.30;99.90
8858;DHT22;4465;50.904;4.696;2023-08-24T10:29:16;22.20;99.90
8858;DHT22;4465;50.904;4.696;2023-08-24T10:31:43;22.10;99.90
8858;DHT22;4465;50.904;4.696;2023-08-24T10:34:12;22.10;99.90
8858;DHT22;4465;50.904;4.696;2023-08-24T10:36:40;21.90;99.90
8858;DHT22;4465;50.904;4.696;2023-08-24T10:39:07;21.90;99.90
8858;DHT22;4465;50.904;4.696;2023-08-24T10:41:52;21.90;99.90
8858;DHT22;4465;50.904;4.696;2023-08-24T10:44:45;21.80;99.90
8858;DHT22;4465;50.904;4.696;2023-08-24T10:47:20;21.80;99.90
8858;DHT22;4465;50.904;4.696;2023-08-24T10:52:25;21.60;99.90
8858;DHT22;4465;50.904;4.696;2023-08-24T10:54:52;21.60;99.90
8858;DHT22;4465;50.904;4.696;2023-08-24T10:57:27;21.50;99.90
8858;DHT22;4465;50.904;4.696;2023-08-24T11:02:42;21.50;99.90
8858;DHT22;4465;50.904;4.696;2023-08-24T11:05:21;21.50;99.90
8858;DHT22;4465;50.904;4.696;2023-08-24T11:07:52;21.50;99.90
8858;DHT22;4465;50.904;4.696;2023-08-24T11:10:21;21.50;99.90
8858;DHT22;4465;50.904;4.696;2023-08-24T11:13:12;21.60;99.90
8858;DHT22;4465;50.904;4.696;2023-08-24T11:18:28;21.70;99.90
8858;DHT22;4465;50.904;4.696;2023-08-24T11:20:55;21.70;99.90
8858;DHT22;4465;50.904;4.696;2023-08-24T11:23:24;21.80;99.90
8858;DHT22;4465;50.904;4.696;2023-08-24T11:25:52;21.80;99.90
8858;DHT22;4465;50.904;4.696;2023-08-24T11:28:25;21.90;99.90
8858;DHT22;4465;50.904;4.696;2023-08-24T11:30:52;21.90;99.90
8858;DHT22;4465;50.904;4.696;2023-08-24T11:33:34;21.90;99.90
8858;DHT22;4465;50.904;4.696;2023-08-24T11:36:03;21.90;99.90
8858;DHT22;4465;50.904;4.696;2023-08-24T11:38:39;21.90;99.90
8858;DHT22;4465;50.904;4.696;2023-08-24T11:41:13;22.00;99.90
8858;DHT22;4465;50.904;4.696;2023-08-24T11:43:40;22.00;99.90
8858;DHT22;4465;50.904;4.696;2023-08-24T11:46:06;22.00;99.90
8858;DHT22;4465;50.904;4.696;2023-08-24T11:48:32;22.00;99.90
8858;DHT22;4465;50.904;4.696;2023-08-24T11:51:02;22.00;99.90
8858;DHT22;4465;50.904;4.696;2023-08-24T11:53:29;22.10;99.90
8858;DHT22;4465;50.904;4.696;2023-08-24T11:55:57;22.10;99.90
8858;DHT22;4465;50.904;4.696;2023-08-24T11:58:24;22.10;99.90
8858;DHT22;4465;50.904;4.696;2023-08-24T12:00:50;22.10;99.90
8858;DHT22;4465;50.904;4.696;2023-08-24T12:03:16;22.20;99.90
8858;DHT22;4465;50.904;4.696;2023-08-24T12:05:46;22.20;99.90
8858;DHT22;4465;50.904;4.696;2023-08-24T12:08:12;22.20;99.90
8858;DHT22;4465;50.904;4.696;2023-08-24T12:10:42;22.20;99.90
8858;DHT22;4465;50.904;4.696;2023-08-24T12:13:08;22.20;99.90
8858;DHT22;4465;50.904;4.696;2023-08-24T12:15:37;22.20;99.90
8858;DHT22;4465;50.904;4.696;2023-08-24T12:18:08;22.30;99.90
8858;DHT22;4465;50.904;4.696;2023-08-24T12:20:34;22.30;99.90
8858;DHT22;4465;50.904;4.696;2023-08-24T12:23:00;22.30;99.90
8858;DHT22;4465;50.904;4.696;2023-08-24T12:25:28;22.40;99.90
8858;DHT22;4465;50.904;4.696;2023-08-24T12:28:14;22.30;99.90
8858;DHT22;4465;50.904;4.696;2023-08-24T12:30:50;22.30;99.90
8858;DHT22;4465;50.904;4.696;2023-08-24T12:33:30;22.30;99.90
8858;DHT22;4465;50.904;4.696;2023-08-24T12:35:58;22.30;99.90
8858;DHT22;4465;50.904;4.696;2023-08-24T12:38:26;22.30;99.90
8858;DHT22;4465;50.904;4.696;2023-08-24T12:40:52;22.30;99.90
8858;DHT22;4465;50.904;4.696;2023-08-24T12:43:20;22.20;99.90
8858;DHT22;4465;50.904;4.696;2023-08-24T12:45:46;22.20;99.90
8858;DHT22;4465;50.904;4.696;2023-08-24T12:48:15;22.10;99.90
8858;DHT22;4465;50.904;4.696;2023-08-24T12:50:41;22.00;99.90
8858;DHT22;4465;50.904;4.696;2023-08-24T12:53:09;22.00;99.90
8858;DHT22;4465;50.904;4.696;2023-08-24T12:55:38;21.90;99.90
8858;DHT22;4465;50.904;4.696;2023-08-24T12:58:06;21.90;99.90
8858;DHT22;4465;50.904;4.696;2023-08-24T13:00:32;21.80;99.90
8858;DHT22;4465;50.904;4.696;2023-08-24T13:03:01;21.80;99.90
8858;DHT22;4465;50.904;4.696;2023-08-24T13:05:29;21.70;99.90
8858;DHT22;4465;50.904;4.696;2023-08-24T13:07:57;21.70;99.90
8858;DHT22;4465;50.904;4.696;2023-08-24T13:10:26;21.60;99.90
8858;DHT22;4465;50.904;4.696;2023-08-24T13:12:54;21.50;99.90
8858;DHT22;4465;50.904;4.696;2023-08-24T13:15:23;21.50;99.90
8858;DHT22;4465;50.904;4.696;2023-08-24T13:17:48;21.40;99.90
8858;DHT22;4465;50.904;4.696;2023-08-24T13:20:16;21.30;99.90
8858;DHT22;4465;50.904;4.696;2023-08-24T13:22:42;21.20;99.90
8858;DHT22;4465;50.904;4.696;2023-08-24T13:25:08;21.20;99.90
8858;DHT22;4465;50.904;4.696;2023-08-24T13:27:34;21.20;99.90
8858;DHT22;4465;50.904;4.696;2023-08-24T13:30:00;21.10;99.90
8858;DHT22;4465;50.904;4.696;2023-08-24T13:32:27;21.10;99.90
8858;DHT22;4465;50.904;4.696;2023-08-24T13:34:55;21.00;99.90
8858;DHT22;4465;50.904;4.696;2023-08-24T13:37:24;21.00;99.90
8858;DHT22;4465;50.904;4.696;2023-08-24T13:39:50;20.90;99.90
8858;DHT22;4465;50.904;4.696;2023-08-24T13:42:17;20.90;99.90
8858;DHT22;4465;50.904;4.696;2023-08-24T13:44:43;20.90;99.90
8858;DHT22;4465;50.904;4.696;2023-08-24T13:47:09;20.80;99.90
8858;DHT22;4465;50.904;4.696;2023-08-24T13:49:38;20.80;99.90
8858;DHT22;4465;50.904;4.696;2023-08-24T13:52:04;20.70;99.90
8858;DHT22;4465;50.904;4.696;2023-08-24T13:54:30;20.70;99.90
8858;DHT22;4465;50.904;4.696;2023-08-24T13:56:58;20.70;99.90
8858;DHT22;4465;50.904;4.696;2023-08-24T13:59:26;20.60;99.90
8858;DHT22;4465;50.904;4.696;2023-08-24T14:01:52;20.60;99.90
8858;DHT22;4465;50.904;4.696;2023-08-24T14:04:18;20.60;99.90
8858;DHT22;4465;50.904;4.696;2023-08-24T14:06:44;20.60;99.90
8858;DHT22;4465;50.904;4.696;2023-08-24T14:09:09;20.60;99.90
8858;DHT22;4465;50.904;4.696;2023-08-24T14:11:37;20.60;99.90
8858;DHT22;4465;50.904;4.696;2023-08-24T14:14:03;20.70;99.90
8858;DHT22;4465;50.904;4.696;2023-08-24T14:16:31;20.60;99.90
8858;DHT22;4465;50.904;4.696;2023-08-24T14:18:57;20.60;99.90
8858;DHT22;4465;50.904;4.696;2023-08-24T14:21:25;20.70;99.90
8858;DHT22;4465;50.904;4.696;2023-08-24T14:23:51;20.70;99.90
8858;DHT22;4465;50.904;4.696;2023-08-24T14:26:17;20.70;99.90
8858;DHT22;4465;50.904;4.696;2023-08-24T14:28:55;20.70;99.90
8858;DHT22;4465;50.904;4.696;2023-08-24T14:31:24;20.70;99.90
8858;DHT22;4465;50.904;4.696;2023-08-24T14:33:55;20.70;99.90
8858;DHT22;4465;50.904;4.696;2023-08-24T14:36:22;20.70;99.90
8858;DHT22;4465;50.904;4.696;2023-08-24T14:38:51;20.70;99.90
8858;DHT22;4465;50.904;4.696;2023-08-24T14:41:22;20.70;99.90
8858;DHT22;4465;50.904;4.696;2023-08-24T14:43:50;20.70;99.90
8858;DHT22;4465;50.904;4.696;2023-08-24T14:46:19;20.70;99.90
8858;DHT22;4465;50.904;4.696;2023-08-24T14:48:44;20.80;99.90
8858;DHT22;4465;50.904;4.696;2023-08-24T14:51:12;20.80;99.90
8858;DHT22;4465;50.904;4.696;2023-08-24T14:53:38;20.80;99.90
8858;DHT22;4465;50.904;4.696;2023-08-24T14:56:06;20.90;99.90
8858;DHT22;4465;50.904;4.696;2023-08-24T14:58:32;20.80;99.90
8858;DHT22;4465;50.904;4.696;2023-08-24T15:01:03;20.90;99.90
8858;DHT22;4465;50.904;4.696;2023-08-24T15:03:29;20.90;99.90
8858;DHT22;4465;50.904;4.696;2023-08-24T15:06:02;20.90;99.90
8858;DHT22;4465;50.904;4.696;2023-08-24T15:08:33;20.90;99.90
8858;DHT22;4465;50.904;4.696;2023-08-24T15:11:02;20.90;99.90
8858;DHT22;4465;50.904;4.696;2023-08-24T15:13:29;21.00;99.90
8858;DHT22;4465;50.904;4.696;2023-08-24T15:15:56;21.00;99.90
8858;DHT22;4465;50.904;4.696;2023-08-24T15:18:27;21.10;99.90
8858;DHT22;4465;50.904;4.696;2023-08-24T15:20:53;21.10;99.90
8858;DHT22;4465;50.904;4.696;2023-08-24T15:23:24;21.10;99.90
8858;DHT22;4465;50.904;4.696;2023-08-24T15:25:54;21.10;99.90
8858;DHT22;4465;50.904;4.696;2023-08-24T15:28:23;21.20;99.90
8858;DHT22;4465;50.904;4.696;2023-08-24T15:30:54;21.20;99.90
8858;DHT22;4465;50.904;4.696;2023-08-24T15:33:20;21.30;99.90
8858;DHT22;4465;50.904;4.696;2023-08-24T15:35:48;21.30;99.90
8858;DHT22;4465;50.904;4.696;2023-08-24T15:38:14;21.30;99.90
8858;DHT22;4465;50.904;4.696;2023-08-24T15:40:40;21.40;99.90
8858;DHT22;4465;50.904;4.696;2023-08-24T15:43:09;21.40;99.90
8858;DHT22;4465;50.904;4.696;2023-08-24T15:45:35;21.40;99.90
8858;DHT22;4465;50.904;4.696;2023-08-24T15:48:01;21.40;99.90
8858;DHT22;4465;50.904;4.696;2023-08-24T15:50:28;21.50;99.90
8858;DHT22;4465;50.904;4.696;2023-08-24T15:52:57;21.50;99.90
8858;DHT22;4465;50.904;4.696;2023-08-24T15:55:31;21.50;99.90
8858;DHT22;4465;50.904;4.696;2023-08-24T15:58:01;21.60;99.90
8858;DHT22;4465;50.904;4.696;2023-08-24T16:00:28;21.60;99.90
8858;DHT22;4465;50.904;4.696;2023-08-24T16:02:54;21.60;99.90
8858;DHT22;4465;50.904;4.696;2023-08-24T16:05:20;21.70;99.90
8858;DHT22;4465;50.904;4.696;2023-08-24T16:07:46;21.70;99.90
8858;DHT22;4465;50.904;4.696;2023-08-24T16:10:14;21.70;99.90
8858;DHT22;4465;50.904;4.696;2023-08-24T16:12:44;21.70;99.90
8858;DHT22;4465;50.904;4.696;2023-08-24T16:15:13;21.80;99.90
8858;DHT22;4465;50.904;4.696;2023-08-24T16:17:39;21.80;99.90